Latest Weather Observations for Westmere

IDV60801

Issued at 6:35 pm EDT Monday 24 November 2014 (issued every 30 minutes, with the page automatically refreshed every 10 minutes)

About weather observations | Map of weather stations | Latest weather observations for VIC | Other Formats
Station Details ID: 089112 Name: WESTMERE Lat: -37.71 Lon: 142.94 Height: 226.0 m
Data from the previous 72 hours. | See also: Recent months at Westmere
Date/Time
EDT
Temp
°C
App
Temp
°C
Dew
Point
Rel
Hum
%
Delta-T
°C
Wind Press
QNH
hPa
Press
MSL
hPa
Rain
since 9 am
mm
Dir
 
Spd
km/h
Gust
km/h
Spd
kts
Gust
kts
24/06:30pm 14.7 11.7 11.8 83 1.6 SW 19 28 10 15 1010.5 1010.2 14.4
24/06:00pm 13.5 10.2 11.7 89 1.0 WSW 20 30 11 16 1010.0 1009.6 14.4
24/05:30pm 12.2 9.9 11.6 96 0.3 SW 15 22 8 12 1010.2 1009.8 14.4
24/05:00pm 11.7 8.5 11.1 96 0.3 WSW 19 26 10 14 1009.9 1009.5 14.4
24/04:42pm 11.5 6.1 11.0 97 0.3 WSW 30 50 16 27 1010.1 1009.7 14.4
24/04:30pm 11.7 5.9 11.5 99 0.1 SW 33 48 18 26 1010.0 1009.6 14.4
24/04:25pm 12.4 7.4 12.2 99 0.1 SW 30 48 16 26 1010.0 1009.6 14.4
24/04:00pm 13.6 8.4 12.8 95 0.4 SW 32 46 17 25 1009.6 1009.2 14.4
24/03:39pm 16.2 11.7 12.6 79 2.0 WSW 28 54 15 29 1009.0 1008.6 14.4
24/03:30pm 18.0 15.2 13.3 74 2.7 W 20 33 11 18 1008.7 1008.3 14.4
24/03:00pm 18.1 15.7 13.8 76 2.5 WSW 19 26 10 14 1008.5 1008.1 14.4
24/02:30pm 17.1 16.4 15.3 89 1.1 WSW 13 19 7 10 1008.9 1008.5 14.4
24/02:00pm 14.9 13.6 14.7 99 0.1 WSW 15 19 8 10 1009.1 1008.7 14.4
24/01:30pm 14.6 12.4 14.4 99 0.1 WSW 19 26 10 14 1009.1 1008.7 14.4
24/01:00pm 14.9 12.9 14.9 100 0.0 W 19 28 10 15 1009.0 1008.6 14.4
24/12:30pm 15.3 15.9 15.3 100 0.0 W 6 9 3 5 1009.0 1008.6 14.2
24/12:00pm 15.2 15.6 15.2 100 0.0 W 7 11 4 6 1008.9 1008.5 12.0
24/11:30am 16.0 16.9 16.0 100 0.0 NNW 6 9 3 5 1008.7 1008.3 11.2
24/11:00am 16.1 16.4 16.1 100 0.0 N 9 17 5 9 1008.8 1008.4 11.2
24/10:30am 14.6 14.8 14.6 100 0.0 NNW 7 15 4 8 1008.1 1007.7 10.4
24/10:27am 14.7 14.9 14.7 100 0.0 NNW 7 15 4 8 1008.5 1008.1 10.2
24/10:11am 14.4 13.7 14.4 100 0.0 NNW 11 20 6 11 1010.6 1010.3 5.2
24/10:00am 14.3 14.0 14.3 100 0.0 NE 9 15 5 8 1008.4 1008.0 3.0
24/09:30am 13.6 13.5 13.4 99 0.1 S 6 9 3 5 1009.3 1008.9 2.2
24/09:00am 13.7 14.0 13.5 99 0.1 NW 4 7 2 4 1009.8 1009.4 2.8
24/08:30am 13.6 14.6 13.3 98 0.2 CALM 0 7 0 4 1008.5 1008.1 1.4
24/08:00am 13.1 11.9 12.9 99 0.1 NE 11 19 6 10 1008.9 1008.5 1.4
24/07:30am 12.9 12.3 12.4 97 0.3 WNW 7 20 4 11 1009.7 1009.3 0.4
24/07:00am 12.4 12.5 11.5 94 0.5 S 2 7 1 4 1008.8 1008.4 0.0
24/06:30am 12.7 9.5 11.4 92 0.7 WSW 19 28 10 15 1009.7 1009.3 0.0
24/06:09am 11.9 8.4 10.1 89 0.9 W 19 28 10 15 1009.7 1009.3 0.0
24/06:00am 11.3 11.2 9.6 89 0.9 CALM 0 6 0 3 1007.5 1007.2 0.0
24/05:30am 11.2 11.1 9.3 88 1.0 CALM 0 0 0 0 1007.4 1007.1 0.0
24/05:00am 11.2 9.8 9.5 89 0.9 NE 7 9 4 5 1007.3 1007.0 0.0
24/04:30am 11.2 9.8 9.5 89 0.9 ENE 7 9 4 5 1008.2 1007.8 0.0
24/04:00am 10.5 9.0 9.1 91 0.7 NE 7 9 4 5 1008.7 1008.3 0.0
24/03:30am 9.9 8.7 8.2 89 0.8 SSW 4 7 2 4 1008.9 1008.5 0.0
24/03:00am 10.2 9.4 8.1 87 1.0 SSW 2 4 1 2 1009.6 1009.2 0.0
24/02:30am 10.9 9.3 8.8 87 1.1 SSW 7 9 4 5 1009.9 1009.5 0.0
24/02:00am 11.4 10.8 9.0 85 1.2 S 2 7 1 4 1010.2 1009.8 0.0
24/01:30am 12.0 11.5 9.2 83 1.4 S 2 4 1 2 1010.8 1010.5 0.0
24/01:00am 12.3 11.5 9.7 84 1.3 SSW 4 6 2 3 1011.3 1011.0 0.0
24/12:30am 12.5 11.1 9.5 82 1.5 SSW 7 9 4 5 1011.4 1011.1 0.0
24/12:00am 12.9 11.7 9.5 80 1.8 SSW 6 9 3 5 1011.9 1011.6 0.0
 
Date/Time
EDT
Temp
°C
App
Temp
°C
Dew
Point
Rel
Hum
%
Delta-T
°C
Wind Press
QNH
hPa
Press
MSL
hPa
Rain
since 9 am
mm
Dir
 
Spd
km/h
Gust
km/h
Spd
kts
Gust
kts
23/11:30pm 13.6 12.4 9.6 77 2.1 SSE 6 7 3 4 1012.0 1011.7 0.0
23/11:00pm 14.7 13.6 10.5 76 2.2 SE 7 11 4 6 1012.3 1012.0 0.0
23/10:30pm 15.2 14.3 10.6 74 2.5 SSE 6 7 3 4 1013.0 1012.6 0.0
23/10:00pm 15.8 13.9 10.6 71 2.8 SSE 11 17 6 9 1012.8 1012.4 0.0
23/09:30pm 16.2 14.4 10.7 70 3.0 S 11 15 6 8 1012.3 1012.0 0.0
23/09:00pm 17.1 14.6 11.2 68 3.2 SSW 15 22 8 12 1013.3 1012.9 0.0
23/08:30pm 19.1 16.7 11.4 61 4.3 SSW 15 20 8 11 1013.0 1012.6 0.0
23/08:00pm 20.2 17.8 11.4 57 4.9 S 15 20 8 11 1011.8 1011.5 0.0
23/07:30pm 21.6 18.4 11.3 52 5.8 S 19 28 10 15 1011.3 1011.0 0.0
23/07:00pm 25.1 22.3 5.3 28 10.2 SSW 9 13 5 7 1010.8 1010.5 0.0
23/06:30pm 25.7 23.0 5.8 28 10.3 WSW 9 15 5 8 1011.0 1010.7 0.0
23/06:00pm 26.2 23.4 5.2 26 10.8 WSW 9 19 5 10 1011.4 1011.1 0.0
23/05:30pm 25.9 22.8 5.5 27 10.6 SW 11 17 6 9 1011.6 1011.3 0.0
23/05:00pm 26.1 23.1 6.2 28 10.4 SW 11 19 6 10 1011.7 1011.4 0.0
23/04:30pm 26.0 22.5 5.6 27 10.6 SSW 13 17 7 9 1011.6 1011.3 0.0
23/04:00pm 26.3 21.5 4.7 25 11.1 SW 19 26 10 14 1011.5 1011.2 0.0
23/03:30pm 26.7 21.9 4.5 24 11.3 SW 19 30 10 16 1011.3 1011.0 0.0
23/03:00pm 26.9 23.1 5.8 26 11.1 SW 15 24 8 13 1011.2 1010.9 0.0
23/02:30pm 26.2 22.8 5.7 27 10.7 SSW 13 20 7 11 1011.6 1011.3 0.0
23/02:00pm 25.1 22.4 5.8 29 10.0 SW 9 19 5 10 1011.3 1011.0 0.0
23/01:30pm 24.6 21.3 6.4 31 9.5 WSW 13 22 7 12 1011.5 1011.2 0.0
23/01:00pm 23.8 20.9 6.6 33 9.0 WSW 11 20 6 11 1011.5 1011.2 0.0
23/12:30pm 22.7 20.2 6.5 35 8.4 SW 9 17 5 9 1011.6 1011.3 0.0
23/12:00pm 21.6 19.6 7.1 39 7.5 W 7 13 4 7 1011.8 1011.5 0.0
23/11:30am 20.5 19.6 7.8 44 6.6 WSW 2 6 1 3 1012.0 1011.7 0.0
23/11:00am 20.4 18.9 8.4 46 6.3 S 6 9 3 5 1012.5 1012.1 0.0
23/10:30am 19.1 17.8 7.5 47 6.0 ENE 4 7 2 4 1012.9 1012.5 0.0
23/10:00am 17.7 17.4 11.5 67 3.4 NNE 4 7 2 4 1013.4 1013.0 0.0
23/09:30am 15.5 15.5 12.3 81 1.8 NE 4 9 2 5 1013.7 1013.3 0.0
23/09:00am 12.7 12.7 12.5 99 0.1 SE 4 7 2 4 1013.7 1013.3 0.0
23/08:30am 12.0 12.6 12.0 100 0.0 CALM 0 0 0 0 1013.3 1012.9 0.0
23/08:00am 11.3 11.7 11.3 100 0.0 CALM 0 0 0 0 1013.0 1012.6 0.0
23/07:30am 10.6 10.8 10.6 100 0.0 CALM 0 0 0 0 1012.8 1012.4 0.0
23/07:00am 9.2 9.0 9.1 99 0.0 CALM 0 0 0 0 1012.5 1012.1 0.0
23/06:30am 8.0 7.5 7.9 99 0.0 CALM 0 0 0 0 1012.2 1011.9 0.0
23/06:00am 6.7 5.2 6.6 99 0.0 SSW 4 6 2 3 1011.7 1011.4 0.0
23/05:30am 5.6 3.8 5.5 99 0.0 SSW 4 6 2 3 1011.2 1010.9 0.0
23/05:00am 8.5 7.8 8.4 99 0.0 SSW 2 4 1 2 1011.0 1010.7 0.0
23/04:30am 7.7 7.1 7.6 99 0.0 CALM 0 0 0 0 1011.0 1010.7 0.0
23/04:00am 8.7 8.4 8.6 99 0.0 CALM 0 0 0 0 1011.0 1010.7 0.0
23/03:30am 8.8 8.4 8.2 96 0.3 CALM 0 0 0 0 1011.0 1010.7 0.0
23/03:00am 9.8 9.6 8.9 94 0.4 CALM 0 0 0 0 1010.9 1010.6 0.0
23/02:30am 11.5 11.7 10.4 93 0.6 CALM 0 2 0 1 1010.9 1010.6 0.0
23/02:00am 12.9 12.0 11.5 91 0.8 SSW 7 11 4 6 1010.9 1010.6 0.0
23/01:30am 13.3 13.3 12.4 94 0.5 SSW 4 7 2 4 1011.1 1010.8 0.0
23/01:00am 13.0 13.2 11.9 93 0.6 SSW 2 4 1 2 1011.1 1010.8 0.0
23/12:30am 13.1 13.0 12.0 93 0.6 SSW 4 7 2 4 1011.1 1010.8 0.0
23/12:00am 12.7 13.1 11.4 92 0.7 CALM 0 0 0 0 1011.1 1010.8 0.0
 
Date/Time
EDT
Temp
°C
App
Temp
°C
Dew
Point
Rel
Hum
%
Delta-T
°C
Wind Press
QNH
hPa
Press
MSL
hPa
Rain
since 9 am
mm
Dir
 
Spd
km/h
Gust
km/h
Spd
kts
Gust
kts
22/11:30pm 14.1 13.6 12.8 92 0.7 SW 7 9 4 5 1010.8 1010.5 0.0
22/11:00pm 13.1 13.6 11.5 90 0.9 CALM 0 0 0 0 1010.5 1010.2 0.0
22/10:30pm 14.3 13.8 12.5 89 1.0 SSW 7 9 4 5 1010.2 1009.8 0.0
22/10:00pm 15.0 14.8 12.9 87 1.2 S 6 9 3 5 1010.1 1009.7 0.0
22/09:30pm 16.1 14.3 13.4 84 1.5 S 15 19 8 10 1009.6 1009.2 0.0
22/09:00pm 17.3 15.5 13.4 78 2.2 S 15 24 8 13 1009.0 1008.6 0.0
22/08:30pm 18.6 16.8 13.2 71 3.1 S 15 20 8 11 1008.4 1008.0 0.0
22/08:00pm 20.4 19.1 13.8 66 3.9 S 13 22 7 12 1007.6 1007.3 0.0
22/07:51pm 21.1 20.5 13.5 62 4.4 SSE 9 17 5 9 1007.4 1007.1 0.0
22/07:30pm 26.1 22.5 10.7 38 8.7 NNW 20 35 11 19 1006.1 1005.7 0.0
22/07:00pm 27.0 21.9 10.7 36 9.3 NNW 28 48 15 26 1005.3 1004.9 0.0
22/06:33pm 28.2 23.3 11.3 35 9.8 NNW 28 48 15 26 1005.1 1004.7 0.0
22/06:30pm 28.1 22.9 11.6 36 9.6 NNW 30 44 16 24 1005.1 1004.7 0.0
22/06:00pm 28.7 23.0 11.3 34 10.1 NW 32 44 17 24 1005.0 1004.6 0.0
22/05:30pm 29.5 24.5 11.1 32 10.7 N 28 43 15 23 1004.9 1004.5 0.0
22/05:00pm 28.7 22.9 10.8 33 10.3 N 32 41 17 22 1005.2 1004.8 0.0
22/04:30pm 28.8 23.4 10.9 33 10.3 NNW 30 46 16 25 1005.1 1004.7 0.0
22/04:09pm 28.9 22.8 10.6 32 10.5 NNW 33 52 18 28 1005.2 1004.8 0.0
22/04:00pm 29.0 22.5 10.2 31 10.7 NNW 35 48 19 26 1005.2 1004.8 0.0
22/03:36pm 29.3 22.8 10.4 31 10.8 NNW 35 56 19 30 1005.1 1004.7 0.0
22/03:30pm 30.0 23.0 10.0 29 11.4 NNW 37 50 20 27 1005.2 1004.8 0.0
22/03:16pm 30.9 23.8 9.7 27 12.1 NNW 37 56 20 30 1005.2 1004.8 0.0
22/03:00pm 31.0 24.6 9.3 26 12.3 NNW 33 52 18 28 1005.6 1005.2 0.0
22/02:30pm 29.8 22.2 7.7 25 12.1 N 37 54 20 29 1006.1 1005.7 0.0
22/02:00pm 29.8 22.0 6.5 23 12.6 N 37 61 20 33 1006.8 1006.5 0.0
22/01:30pm 28.9 21.0 6.3 24 12.1 N 37 56 20 30 1007.3 1007.0 0.0
22/01:07pm 28.4 21.4 5.9 24 11.9 N 32 52 17 28 1007.6 1007.3 0.0
22/01:00pm 28.6 22.0 6.1 24 12.0 N 30 43 16 23 1007.7 1007.4 0.0
22/12:30pm 26.7 18.8 6.2 27 10.8 N 37 46 20 25 1008.2 1007.8 0.0
22/12:00pm 26.3 19.5 6.9 29 10.3 N 32 44 17 24 1008.5 1008.1 0.0
22/11:30am 23.3 17.8 9.0 40 7.8 N 28 39 15 21 1008.9 1008.5 0.0
22/11:00am 21.1 17.0 10.0 49 6.1 N 22 32 12 17 1009.2 1008.8 0.0
22/10:30am 17.3 12.8 11.3 68 3.3 NNE 26 33 14 18 1007.7 1007.4 0.0
22/10:29am 17.1 12.5 11.2 68 3.2 NNE 26 33 14 18 1007.7 1007.4 0.0
22/10:23am 17.4 13.9 11.0 66 3.5 NNE 20 24 11 13 1009.8 1009.4 0.0
22/10:00am 17.5 15.9 11.5 68 3.3 W 11 17 6 9 1012.1 1011.8 0.0
22/09:52am 17.9 15.9 10.3 61 4.1 NW 11 17 6 9 1011.7 1011.4 0.0
22/09:30am 17.8 14.0 9.2 57 4.5 NNE 19 28 10 15 1009.7 1009.3 0.0
22/09:00am 17.2 14.5 8.9 58 4.3 NE 13 20 7 11 1009.6 1009.2 0.0
22/08:30am 15.6 13.5 9.7 68 3.1 ENE 11 15 6 8 1009.7 1009.3 0.0
22/08:00am 13.8 12.7 10.8 82 1.6 NE 7 9 4 5 1010.3 1009.9 0.0
22/07:30am 12.8 12.6 10.3 85 1.3 SW 2 4 1 2 1011.0 1010.7 0.0
22/07:00am 12.1 11.5 10.5 90 0.8 SW 4 6 2 3 1010.7 1010.4 0.0
22/06:30am 11.4 10.7 10.1 92 0.7 SW 4 6 2 3 1010.0 1009.6 0.0
22/06:00am 11.1 10.7 9.7 91 0.7 SW 2 4 1 2 1010.0 1009.6 0.0
22/05:30am 11.3 10.4 9.4 88 1.0 SW 4 6 2 3 1010.1 1009.7 0.0
22/05:00am 12.3 10.6 9.7 84 1.3 SW 9 15 5 8 1010.3 1009.9 0.0
22/04:52am 11.6 6.3 9.7 88 1.0 SW 28 50 15 27 1010.1 1009.7 0.0
22/04:49am 10.7 4.4 9.6 93 0.6 SW 33 50 18 27 1010.6 1010.3 0.0
22/04:30am 9.7 7.6 9.6 99 0.1 NNE 11 13 6 7 1008.7 1008.3 0.0
22/04:00am 8.1 6.8 7.7 97 0.2 N 4 6 2 3 1009.3 1008.9 0.0
22/03:30am 8.2 6.6 7.9 98 0.1 N 6 9 3 5 1009.5 1009.1 0.0
22/03:00am 8.4 6.3 8.1 98 0.1 N 9 9 5 5 1009.6 1009.2 0.0
22/02:30am 8.1 7.1 7.5 96 0.3 N 2 4 1 2 1009.8 1009.4 0.0
22/02:00am 8.1 5.9 7.7 97 0.2 N 9 9 5 5 1010.3 1009.9 0.0
22/01:30am 7.9 6.1 7.0 94 0.4 SSW 6 6 3 3 1010.7 1010.4 0.0
22/01:00am 8.6 6.9 7.5 93 0.5 SSW 6 7 3 4 1011.2 1010.9 0.0
22/12:30am 9.9 8.8 8.5 91 0.7 SSW 4 6 2 3 1011.6 1011.3 0.0
22/12:00am 10.6 9.6 8.9 89 0.9 SW 4 6 2 3 1012.0 1011.7 0.0
 
Date/Time
EDT
Temp
°C
App
Temp
°C
Dew
Point
Rel
Hum
%
Delta-T
°C
Wind Press
QNH
hPa
Press
MSL
hPa
Rain
since 9 am
mm
Dir
 
Spd
km/h
Gust
km/h
Spd
kts
Gust
kts
21/11:30pm 11.1 10.1 9.0 87 1.1 SSW 4 6 2 3 1012.3 1012.0 0.0
21/11:00pm 11.9 10.1 9.3 84 1.3 SSW 9 13 5 7 1012.5 1012.1 0.0
21/10:30pm 12.7 10.5 9.5 81 1.6 SSW 11 19 6 10 1012.6 1012.2 0.0
21/10:00pm 13.9 11.5 9.9 77 2.1 SSW 13 19 7 10 1012.6 1012.2 0.0
21/09:30pm 15.7 13.2 9.6 67 3.2 SSW 13 20 7 11 1012.0 1011.7 0.0
21/09:00pm 16.9 13.9 9.3 61 4.0 SSW 15 20 8 11 1011.7 1011.4 0.0
21/08:30pm 18.8 16.2 7.9 49 5.6 WSW 11 17 6 9 1011.3 1011.0 0.0
21/08:00pm 22.0 18.7 4.6 32 8.6 WNW 11 17 6 9 1010.8 1010.5 0.0
21/07:30pm 23.2 21.0 6.1 33 8.8 W 7 11 4 6 1010.5 1010.2 0.0
21/07:00pm 23.7 21.3 5.1 30 9.4 WSW 7 13 4 7 1010.3 1009.9 0.0

Other Formats:

Comma delimited format used in spreadsheet applications
http://www.bom.gov.au/fwo/IDV60801/IDV60801.95840.axf

JavaScript Object Notation format (JSON) in row-major order
http://www.bom.gov.au/fwo/IDV60801/IDV60801.95840.json